Time;durP1;ratioP1;P1;durP2;ratioP2;P2;SDS_P1;SDS_P2;PMS_P1;PMS_P2;Temp;Humidity;BMP_temperature;BMP_pressure;BME280_temperature;BME280_humidity;BME280_pressure;Samples;Min_cycle;Max_cycle;Signal;HPM_P1;HPM_P2
2023/04/27 00:00:52;;;;;;;5.70;2.20;;;;;;;10.75;100.00;101217.81;2074111;28;20659;-63
2023/04/27 00:01:53;;;;;;;7.07;2.40;;;;;;;10.68;100.00;101213.19;2079436;28;20250;-62
2023/04/27 00:02:53;;;;;;;5.97;2.60;;;;;;;10.68;100.00;101218.72;2078993;28;20188;-62
2023/04/27 00:03:54;;;;;;;6.93;2.60;;;;;;;10.73;100.00;101207.16;2080432;28;20200;-62
2023/04/27 00:04:55;;;;;;;4.57;2.30;;;;;;;10.74;100.00;101207.94;2080692;28;20192;-63
2023/04/27 00:05:56;;;;;;;6.53;2.43;;;;;;;10.73;100.00;101217.47;2079608;28;20706;-62
2023/04/27 00:06:56;;;;;;;5.37;2.43;;;;;;;10.66;100.00;101207.25;2077836;28;20882;-63
2023/04/27 00:07:57;;;;;;;8.73;2.70;;;;;;;10.59;100.00;101212.13;2073453;28;20205;-63
2023/04/27 00:08:58;;;;;;;5.43;2.30;;;;;;;10.56;100.00;101207.44;2080094;28;20709;-63
2023/04/27 00:09:58;;;;;;;4.83;2.20;;;;;;;10.38;100.00;101198.56;2079916;28;20180;-62
2023/04/27 00:10:59;;;;;;;4.80;2.30;;;;;;;9.53;100.00;101060.47;2080502;28;20607;-62
2023/04/27 00:12:00;;;;;;;6.97;2.60;;;;;;;10.53;100.00;101211.81;2079340;28;20221;-62
2023/04/27 00:13:00;;;;;;;7.73;2.50;;;;;;;9.43;100.00;101055.84;2080486;28;20200;-63
2023/04/27 00:14:01;;;;;;;6.83;2.27;;;;;;;10.41;100.00;101211.59;2080415;28;20223;-62
2023/04/27 00:15:01;;;;;;;6.93;2.30;;;;;;;10.31;100.00;101207.75;2080356;28;20223;-62
2023/04/27 00:16:02;;;;;;;9.00;2.67;;;;;;;10.26;100.00;101204.69;2078906;28;20186;-63
2023/04/27 00:17:03;;;;;;;4.90;2.43;;;;;;;10.30;100.00;101214.50;2078285;28;20242;-62
2023/04/27 00:18:03;;;;;;;5.43;2.30;;;;;;;10.32;100.00;101209.34;2080825;28;20651;-62
2023/04/27 00:19:04;;;;;;;8.30;2.43;;;;;;;10.36;100.00;101212.06;2080536;28;20196;-62
2023/04/27 00:20:06;;;;;;;7.47;2.27;;;;;;;10.37;100.00;101211.66;2079402;28;20254;-62
2023/04/27 00:21:08;;;;;;;7.77;2.63;;;;;;;9.83;100.00;101153.78;2080372;28;20197;-62
2023/04/27 00:22:08;;;;;;;8.10;3.00;;;;;;;10.28;100.00;101219.69;2078212;28;20924;-62
2023/04/27 00:23:09;;;;;;;9.70;2.50;;;;;;;10.32;100.00;101211.31;2075471;28;20497;-63
2023/04/27 00:24:09;;;;;;;9.60;2.80;;;;;;;9.81;100.00;101140.38;2078397;28;20184;-63
2023/04/27 00:25:10;;;;;;;5.97;2.40;;;;;;;10.20;100.00;101211.91;2072951;28;20181;-62
2023/04/27 00:26:11;;;;;;;5.50;2.03;;;;;;;10.19;100.00;101213.09;2080836;28;20180;-62
2023/04/27 00:27:12;;;;;;;8.23;2.50;;;;;;;10.18;100.00;101214.28;2071666;28;20458;-63
2023/04/27 00:28:12;;;;;;;5.17;2.30;;;;;;;10.20;100.00;101211.91;2078877;28;20203;-62
2023/04/27 00:29:13;;;;;;;5.97;2.37;;;;;;;10.16;100.00;101208.38;2080138;28;20443;-63
2023/04/27 00:30:13;;;;;;;9.73;2.40;;;;;;;10.14;100.00;101214.31;2079455;28;20184;-62
2023/04/27 00:31:14;;;;;;;7.97;2.30;;;;;;;9.79;100.00;101158.59;2080120;28;20201;-62
2023/04/27 00:32:15;;;;;;;5.60;2.40;;;;;;;10.10;100.00;101210.81;2079752;28;20217;-63
2023/04/27 00:33:15;;;;;;;9.30;2.37;;;;;;;10.08;100.00;101209.66;2080171;28;20187;-63
2023/04/27 00:34:16;;;;;;;6.70;2.37;;;;;;;9.66;100.00;101174.16;2080157;28;20417;-63
2023/04/27 00:35:16;;;;;;;5.57;2.40;;;;;;;10.02;100.00;101205.75;2072513;28;20174;-63
2023/04/27 00:36:17;;;;;;;7.50;3.30;;;;;;;9.99;100.00;101212.91;2078877;28;20337;-63
2023/04/27 00:37:18;;;;;;;8.70;2.70;;;;;;;9.83;100.00;101178.69;2076932;28;20193;-63
2023/04/27 00:38:18;;;;;;;7.60;2.33;;;;;;;9.95;100.00;101205.84;2076582;28;20706;-63
2023/04/27 00:39:19;;;;;;;4.90;2.10;;;;;;;9.90;100.00;101203.53;2076518;28;20567;-63
2023/04/27 00:40:20;;;;;;;6.80;2.70;;;;;;;9.90;100.00;101204.28;2073316;28;20621;-63
2023/04/27 00:41:21;;;;;;;7.27;2.40;;;;;;;9.90;100.00;101209.06;2078379;28;20219;-63
2023/04/27 00:42:23;;;;;;;9.10;2.40;;;;;;;9.92;100.00;101209.44;2079816;28;20430;-63
2023/04/27 00:43:24;;;;;;;8.90;2.23;;;;;;;9.94;100.00;101210.59;2080623;28;20434;-63
2023/04/27 00:44:25;;;;;;;6.60;2.50;;;;;;;9.92;100.00;101210.22;2080210;28;20948;-63
2023/04/27 00:45:26;;;;;;;5.57;2.53;;;;;;;9.85;100.00;101199.22;2080072;28;20238;-62
2023/04/27 00:46:27;;;;;;;6.23;2.17;;;;;;;9.82;100.00;101207.56;2079331;28;20443;-63
2023/04/27 00:47:29;;;;;;;10.47;2.67;;;;;;;9.79;100.00;101206.41;2076783;28;20280;-63
2023/04/27 00:48:29;;;;;;;5.70;2.30;;;;;;;9.84;100.00;101210.72;2074659;28;20447;-63
2023/04/27 00:49:31;;;;;;;6.47;2.20;;;;;;;9.88;100.00;101226.09;2071682;28;20934;-63
2023/04/27 00:50:31;;;;;;;8.10;2.20;;;;;;;9.80;100.00;101215.50;2072603;28;20226;-62
2023/04/27 00:51:32;;;;;;;8.27;2.23;;;;;;;9.73;100.00;101210.84;2080458;28;20487;-63
2023/04/27 00:52:32;;;;;;;7.47;2.63;;;;;;;9.64;100.00;101207.75;2076160;28;20194;-62
2023/04/27 00:53:35;;;;;;;9.27;2.33;;;;;;;9.71;100.00;101209.69;2078718;28;20690;-63
2023/04/27 00:54:35;;;;;;;4.80;2.27;;;;;;;9.71;100.00;101209.69;2080514;28;20207;-63
2023/04/27 00:55:36;;;;;;;5.43;2.40;;;;;;;9.64;100.00;101204.22;2075346;28;20447;-62
2023/04/27 00:56:36;;;;;;;7.77;2.40;;;;;;;9.62;100.00;101207.41;2075531;28;20195;-63
2023/04/27 00:57:37;;;;;;;5.33;2.27;;;;;;;9.63;100.00;101200.66;2078145;28;20189;-62
2023/04/27 00:58:38;;;;;;;8.13;2.37;;;;;;;9.52;100.00;101190.91;2080095;28;20322;-62
2023/04/27 00:59:39;;;;;;;6.10;2.50;;;;;;;9.62;100.00;101207.41;2079193;28;20424;-63
2023/04/27 01:00:39;;;;;;;5.07;2.10;;;;;;;9.60;100.00;101215.34;2080443;28;20194;-63
2023/04/27 01:01:40;;;;;;;6.80;2.10;;;;;;;9.57;100.00;101220.88;2079661;28;20731;-63
2023/04/27 01:02:41;;;;;;;5.93;2.20;;;;;;;9.60;100.00;101220.06;2075690;28;20200;-63
2023/04/27 01:03:42;;;;;;;4.20;2.23;;;;;;;9.52;100.00;101222.13;2077651;28;20669;-63
2023/04/27 01:04:42;;;;;;;7.37;2.47;;;;;;;9.49;100.00;101220.19;2080456;28;20815;-63
2023/04/27 01:05:42;;;;;;;4.30;2.03;;;;;;;9.49;100.00;101217.41;2079647;28;20267;-62
2023/04/27 01:06:43;;;;;;;5.63;2.30;;;;;;;9.49;100.00;101222.94;2077735;28;20181;-63
2023/04/27 01:07:43;;;;;;;8.93;2.87;;;;;;;9.52;100.00;101218.56;2079889;28;20211;-62
2023/04/27 01:08:45;;;;;;;6.37;2.50;;;;;;;9.52;100.00;101227.66;2088208;28;20557;-63
2023/04/27 01:09:45;;;;;;;9.60;3.00;;;;;;;9.59;100.00;101224.81;2079201;28;20677;-63
2023/04/27 01:10:48;;;;;;;4.07;2.00;;;;;;;9.57;100.00;101224.44;2079887;28;20815;-63
2023/04/27 01:11:49;;;;;;;6.00;2.33;;;;;;;9.61;100.00;101225.22;2080218;28;20249;-63
2023/04/27 01:12:49;;;;;;;4.37;2.00;;;;;;;9.59;100.00;101230.34;2079468;28;20850;-63
2023/04/27 01:13:50;;;;;;;5.47;2.13;;;;;;;8.96;100.00;101141.69;2080081;28;20453;-63
2023/04/27 01:14:51;;;;;;;7.20;2.20;;;;;;;9.48;100.00;101229.66;2080182;28;20617;-63
2023/04/27 01:15:51;;;;;;;5.07;2.20;;;;;;;9.50;100.00;101235.59;2079958;28;20505;-63
2023/04/27 01:16:52;;;;;;;5.23;2.20;;;;;;;8.57;100.00;101081.22;2079904;28;20180;-63
2023/04/27 01:17:59;;;;;;;4.80;2.23;;;;;;;9.49;100.00;101234.00;2078864;28;20193;-63
2023/04/27 01:19:00;;;;;;;6.85;2.47;;;;;;;9.49;100.00;101236.00;2080389;28;20588;-63
2023/04/27 01:20:01;;;;;;;5.97;2.40;;;;;;;9.49;100.00;101233.25;2072487;28;20237;-63
2023/04/27 01:21:02;;;;;;;6.13;2.45;;;;;;;9.45;100.00;101226.94;2076976;28;20224;-63
2023/04/27 01:22:02;;;;;;;6.67;2.47;;;;;;;9.46;100.00;101232.06;2080593;28;20187;-63
2023/04/27 01:23:03;;;;;;;9.37;2.40;;;;;;;9.43;100.00;101230.13;2081232;28;20212;-63
2023/04/27 01:24:06;;;;;;;6.27;2.30;;;;;;;9.46;100.00;101232.06;2082630;28;20654;-63
2023/04/27 01:25:06;;;;;;;4.90;2.22;;;;;;;9.44;100.00;101236.44;2080076;28;20245;-63
2023/04/27 01:26:07;;;;;;;7.13;2.07;;;;;;;9.45;100.00;101236.03;2079744;28;20270;-63
2023/04/27 01:27:07;;;;;;;8.00;2.50;;;;;;;9.46;100.00;101237.59;2079926;28;20182;-63
2023/04/27 01:28:08;;;;;;;4.83;2.40;;;;;;;9.46;100.00;101231.28;2073289;28;20238;-63
2023/04/27 01:29:08;;;;;;;7.60;2.30;;;;;;;9.46;100.00;101234.03;2077189;28;20307;-63
2023/04/27 01:30:09;;;;;;;5.73;2.20;;;;;;;9.41;100.00;101228.94;2078628;28;20198;-63
2023/04/27 01:31:10;;;;;;;6.17;2.20;;;;;;;9.41;100.00;101234.50;2080136;28;20185;-63
2023/04/27 01:32:11;;;;;;;6.70;2.42;;;;;;;9.42;100.00;101236.84;2077179;28;20214;-63
2023/04/27 01:33:12;;;;;;;8.43;2.70;;;;;;;9.45;100.00;101240.78;2073717;28;20194;-63
2023/04/27 01:34:12;;;;;;;5.33;2.40;;;;;;;9.47;100.00;101235.59;2080288;28;20260;-63
2023/04/27 01:35:12;;;;;;;7.77;2.60;;;;;;;9.47;100.00;101238.38;2080455;28;20178;-63
2023/04/27 01:36:13;;;;;;;5.43;2.07;;;;;;;9.43;100.00;101234.88;2079465;28;20205;-63
2023/04/27 01:37:14;;;;;;;5.87;2.50;;;;;;;9.36;100.00;101234.94;2079805;28;20334;-63
2023/04/27 01:38:15;;;;;;;8.23;2.70;;;;;;;9.33;100.00;101238.53;2077967;28;20211;-63
2023/04/27 01:39:15;;;;;;;5.57;2.33;;;;;;;9.33;100.00;101244.06;2079984;28;20210;-63
2023/04/27 01:40:15;;;;;;;5.33;2.33;;;;;;;9.33;100.00;101231.00;2076225;28;20275;-63
2023/04/27 01:41:16;;;;;;;4.80;2.70;;;;;;;9.32;100.00;101240.50;2073368;28;20185;-63
2023/04/27 01:42:16;;;;;;;5.87;2.23;;;;;;;9.36;100.00;101235.72;2079782;28;20193;-63
2023/04/27 01:43:17;;;;;;;4.07;2.27;;;;;;;9.38;100.00;101246.38;2073117;28;20211;-63
2023/04/27 01:44:19;;;;;;;6.50;2.30;;;;;;;9.37;100.00;101231.75;2079604;28;20207;-63
2023/04/27 01:45:20;;;;;;;5.73;2.23;;;;;;;9.39;100.00;101234.13;2080205;28;20188;-63
2023/04/27 01:46:20;;;;;;;8.27;2.73;;;;;;;9.37;100.00;101236.53;2074002;28;21020;-63
2023/04/27 01:47:21;;;;;;;7.10;2.43;;;;;;;9.36;100.00;101244.03;2076540;28;20200;-63
2023/04/27 01:48:21;;;;;;;5.60;2.27;;;;;;;9.32;100.00;101243.25;2071911;28;20634;-63
2023/04/27 01:49:22;;;;;;;8.70;2.43;;;;;;;9.33;100.00;101242.06;2073363;28;20687;-63
2023/04/27 01:50:22;;;;;;;5.30;2.07;;;;;;;9.31;100.00;101236.16;2079352;28;20674;-63
2023/04/27 01:51:22;;;;;;;7.67;2.50;;;;;;;9.27;100.00;101240.16;2080278;28;20321;-63
2023/04/27 01:52:23;;;;;;;6.10;2.80;;;;;;;9.30;100.00;101228.28;2080110;28;20222;-63
2023/04/27 01:53:23;;;;;;;7.33;2.73;;;;;;;9.31;100.00;101235.38;2075870;28;20208;-63
2023/04/27 01:54:24;;;;;;;7.97;2.27;;;;;;;9.32;100.00;101228.66;2081892;28;20222;-63
2023/04/27 01:55:24;;;;;;;5.97;2.50;;;;;;;9.30;100.00;101233.81;2077101;28;20216;-63
2023/04/27 01:56:24;;;;;;;7.90;2.60;;;;;;;9.34;100.00;101238.13;2075846;28;20200;-63
2023/04/27 01:57:25;;;;;;;7.40;2.53;;;;;;;9.37;100.00;101237.28;2081681;28;20180;-63
2023/04/27 01:58:26;;;;;;;6.40;2.50;;;;;;;9.35;100.00;101242.47;2074637;28;20268;-63
2023/04/27 01:59:27;;;;;;;6.03;2.83;;;;;;;8.37;100.00;101093.25;2081449;28;20190;-63
2023/04/27 02:00:27;;;;;;;5.50;2.40;;;;;;;9.21;100.00;101245.34;2073240;28;20428;-63
2023/04/27 02:01:30;;;;;;;3.73;2.37;;;;;;;9.23;100.00;101240.19;2080235;28;20229;-63
2023/04/27 02:02:30;;;;;;;5.23;2.50;;;;;;;9.23;100.00;101239.41;2081537;28;20642;-63
2023/04/27 02:03:30;;;;;;;7.90;2.63;;;;;;;9.19;100.00;101244.19;2078162;28;20884;-63
2023/04/27 02:04:31;;;;;;;6.53;2.53;;;;;;;9.14;100.00;101241.84;2081253;28;20216;-63
2023/04/27 02:05:31;;;;;;;4.30;2.50;;;;;;;8.47;100.00;101153.94;2081209;28;20183;-63
2023/04/27 02:06:32;;;;;;;9.10;2.93;;;;;;;9.06;100.00;101251.38;2080767;28;20172;-63
2023/04/27 02:07:32;;;;;;;5.63;2.70;;;;;;;9.05;100.00;101244.28;2081267;28;20238;-63
2023/04/27 02:08:33;;;;;;;4.80;2.70;;;;;;;9.00;100.00;101241.94;2073829;28;20210;-62
2023/04/27 02:09:34;;;;;;;5.20;2.20;;;;;;;8.56;100.00;101170.06;2080401;28;20729;-63
2023/04/27 02:10:35;;;;;;;5.83;2.70;;;;;;;9.06;100.00;101252.19;2081145;28;20875;-63
2023/04/27 02:11:35;;;;;;;7.07;2.40;;;;;;;9.13;100.00;101254.09;2080849;28;20291;-63
2023/04/27 02:12:35;;;;;;;8.63;2.80;;;;;;;9.02;100.00;101245.13;2077639;28;20205;-63
2023/04/27 02:13:36;;;;;;;5.63;2.40;;;;;;;9.05;100.00;101250.63;2075577;28;20268;-63
2023/04/27 02:14:37;;;;;;;5.87;2.63;;;;;;;9.09;100.00;101256.91;2081186;28;20190;-63
2023/04/27 02:15:37;;;;;;;5.27;2.50;;;;;;;9.15;100.00;101254.47;2081285;28;20583;-63
2023/04/27 02:16:37;;;;;;;5.17;2.50;;;;;;;9.12;100.00;101256.06;2081107;28;20623;-63
2023/04/27 02:17:38;;;;;;;6.37;2.90;;;;;;;8.25;100.00;101126.88;2080938;28;20192;-63
2023/04/27 02:18:39;;;;;;;7.27;3.00;;;;;;;9.20;100.00;101256.81;2081174;28;20229;-63
2023/04/27 02:19:39;;;;;;;5.47;2.40;;;;;;;9.18;100.00;101248.91;2080097;28;20207;-63
2023/04/27 02:20:40;;;;;;;6.67;2.60;;;;;;;8.78;100.00;101180.53;2081558;28;20598;-63
2023/04/27 02:21:41;;;;;;;4.47;2.17;;;;;;;9.12;100.00;101256.06;2079148;28;20176;-63
2023/04/27 02:22:44;;;;;;;5.30;2.60;;;;;;;7.87;100.00;101053.31;2073429;28;20251;-63
2023/04/27 02:23:45;;;;;;;6.47;2.50;;;;;;;9.18;100.00;101253.66;2073736;28;20660;-63
2023/04/27 02:24:45;;;;;;;5.77;2.73;;;;;;;9.14;100.00;101255.69;2088635;28;20422;-63
2023/04/27 02:25:46;;;;;;;9.10;2.77;;;;;;;9.15;100.00;101258.03;2081172;28;20642;-63
2023/04/27 02:26:46;;;;;;;6.97;2.50;;;;;;;9.12;100.00;101258.06;2078192;28;20199;-63
2023/04/27 02:27:46;;;;;;;7.77;2.57;;;;;;;9.17;100.00;101250.09;2080611;28;20658;-63
2023/04/27 02:28:48;;;;;;;5.87;2.57;;;;;;;9.18;100.00;101250.91;2076781;28;20189;-63
2023/04/27 02:29:49;;;;;;;8.02;2.80;;;;;;;9.23;100.00;101256.78;2080264;28;20315;-63
2023/04/27 02:30:49;;;;;;;4.60;2.20;;;;;;;9.24;100.00;101257.56;2081409;28;20181;-63
2023/04/27 02:31:50;;;;;;;4.23;2.40;;;;;;;9.27;100.00;101254.78;2080486;28;20184;-63
2023/04/27 02:32:50;;;;;;;5.27;2.33;;;;;;;9.23;100.00;101254.00;2073453;28;20256;-63
2023/04/27 02:33:51;;;;;;;5.93;2.07;;;;;;;9.25;100.00;101259.13;2080488;28;20185;-63
2023/04/27 02:34:51;;;;;;;8.20;2.50;;;;;;;9.18;100.00;101242.63;2081032;28;20271;-63
2023/04/27 02:35:52;;;;;;;8.37;2.67;;;;;;;9.26;100.00;101260.69;2081103;28;20294;-63
2023/04/27 02:36:52;;;;;;;6.43;2.13;;;;;;;9.30;100.00;101255.94;2080605;28;20203;-63
2023/04/27 02:37:53;;;;;;;5.13;2.47;;;;;;;9.31;100.00;101263.03;2080314;28;20192;-63
2023/04/27 02:38:53;;;;;;;7.20;2.30;;;;;;;9.27;100.00;101252.00;2074577;28;20253;-63
2023/04/27 02:39:54;;;;;;;5.77;2.40;;;;;;;9.25;100.00;101256.38;2080345;28;20186;-63
2023/04/27 02:40:54;;;;;;;7.03;2.60;;;;;;;9.22;100.00;101255.19;2081503;28;20182;-63
2023/04/27 02:41:55;;;;;;;6.53;2.40;;;;;;;9.25;100.00;101267.44;2081088;28;20194;-63
2023/04/27 02:42:56;;;;;;;6.37;2.50;;;;;;;8.98;100.00;101222.22;2079929;28;20206;-63
2023/04/27 02:43:56;;;;;;;6.77;2.50;;;;;;;9.22;100.00;101262.72;2078227;28;20197;-63
2023/04/27 02:44:56;;;;;;;6.90;2.87;;;;;;;9.24;100.00;101263.09;2081181;28;20236;-63
2023/04/27 02:46:02;;;;;;;6.93;2.80;;;;;;;9.25;100.00;101271.00;2081024;28;20218;-63
2023/04/27 02:47:02;;;;;;;6.07;2.60;;;;;;;9.15;100.00;101263.56;2080336;28;20200;-63
2023/04/27 02:48:03;;;;;;;6.33;2.47;;;;;;;9.10;100.00;101261.25;2080309;28;20181;-63
2023/04/27 02:49:03;;;;;;;5.93;2.53;;;;;;;9.14;100.00;101263.97;2081573;28;20298;-63
2023/04/27 02:50:04;;;;;;;8.70;2.50;;;;;;;9.11;100.00;101267.53;2080703;28;20194;-63
2023/04/27 02:51:05;;;;;;;6.57;2.42;;;;;;;9.08;100.00;101266.38;2081323;28;20255;-63
2023/04/27 02:52:06;;;;;;;6.90;2.30;;;;;;;9.04;100.00;101270.38;2080813;28;20205;-63
2023/04/27 02:53:07;;;;;;;4.93;2.50;;;;;;;9.01;100.00;101262.88;2078866;28;20315;-63
2023/04/27 02:54:08;;;;;;;6.00;2.42;;;;;;;8.99;100.00;101259.75;2079046;28;20184;-63
2023/04/27 02:55:08;;;;;;;4.13;2.30;;;;;;;8.97;100.00;101265.66;2081073;28;20284;-63
2023/04/27 02:56:09;;;;;;;7.40;2.60;;;;;;;8.93;100.00;101267.69;2079535;28;20183;-63
2023/04/27 02:57:09;;;;;;;7.20;2.80;;;;;;;8.97;100.00;101262.91;2073752;28;20511;-63
2023/04/27 02:58:10;;;;;;;4.07;2.30;;;;;;;8.87;100.00;101257.47;2075917;28;20197;-63
2023/04/27 02:59:10;;;;;;;6.67;2.87;;;;;;;8.89;100.00;101266.94;2073369;28;20186;-63
2023/04/27 03:00:11;;;;;;;6.33;2.40;;;;;;;8.89;100.00;101266.94;2072195;28;20288;-63
2023/04/27 03:01:11;;;;;;;7.47;2.43;;;;;;;8.86;100.00;101264.97;2077720;28;20227;-63
2023/04/27 03:02:12;;;;;;;7.27;2.80;;;;;;;8.81;100.00;101264.63;2077151;28;20682;-63
2023/04/27 03:03:12;;;;;;;6.10;2.80;;;;;;;8.73;100.00;101263.88;2074639;28;25702;-63
2023/04/27 03:04:13;;;;;;;7.73;2.80;;;;;;;8.36;100.00;101216.72;2079783;28;20188;-63
2023/04/27 03:05:14;;;;;;;5.10;2.10;;;;;;;8.70;100.00;101241.75;2080573;28;20192;-63
2023/04/27 03:06:15;;;;;;;4.43;2.60;;;;;;;8.90;100.00;101270.47;2080862;28;20244;-63
2023/04/27 03:07:15;;;;;;;5.90;2.80;;;;;;;8.74;100.00;101242.53;2080825;28;20188;-63
2023/04/27 03:08:16;;;;;;;8.80;2.60;;;;;;;8.95;100.00;101270.03;2078642;28;20187;-63
2023/04/27 03:09:16;;;;;;;6.77;2.60;;;;;;;8.88;100.00;101261.78;2077714;28;20278;-63
2023/04/27 03:10:17;;;;;;;6.37;2.60;;;;;;;8.84;100.00;101264.59;2080449;28;20184;-63
2023/04/27 03:11:17;;;;;;;6.70;2.50;;;;;;;8.86;100.00;101272.47;2078113;28;20252;-63
2023/04/27 03:12:17;;;;;;;6.77;2.80;;;;;;;8.85;100.00;101273.66;2076002;28;20227;-63
2023/04/27 03:13:18;;;;;;;4.97;2.33;;;;;;;8.75;100.00;101268.97;2078553;28;20183;-63
2023/04/27 03:14:18;;;;;;;5.50;2.30;;;;;;;8.65;100.00;101273.38;2081394;28;20180;-63
2023/04/27 03:15:19;;;;;;;6.93;2.70;;;;;;;8.65;100.00;101278.91;2080809;28;20182;-63
2023/04/27 03:16:19;;;;;;;6.70;2.33;;;;;;;8.69;100.00;101271.41;2079895;28;20234;-63
2023/04/27 03:17:19;;;;;;;6.07;2.77;;;;;;;8.53;100.00;101262.00;2080827;28;20264;-63
2023/04/27 03:18:20;;;;;;;5.17;2.50;;;;;;;8.63;100.00;101281.31;2078584;28;20222;-63
2023/04/27 03:19:21;;;;;;;7.53;2.60;;;;;;;8.70;100.00;101284.00;2075145;28;20193;-63
2023/04/27 03:20:21;;;;;;;7.03;2.67;;;;;;;8.70;100.00;101302.56;2080150;28;20251;-63
2023/04/27 03:21:21;;;;;;;6.57;2.40;;;;;;;8.65;100.00;101278.91;2080969;28;20180;-63
2023/04/27 03:22:22;;;;;;;5.07;2.20;;;;;;;8.71;100.00;101276.53;2081080;28;20181;-63
2023/04/27 03:23:22;;;;;;;5.03;2.50;;;;;;;8.73;100.00;101285.97;2073351;28;21191;-63
2023/04/27 03:24:24;;;;;;;6.90;2.60;;;;;;;8.75;100.00;101280.03;2079397;28;20197;-63
2023/04/27 03:25:24;;;;;;;5.03;2.60;;;;;;;8.81;100.00;101284.72;2080428;28;20709;-63
2023/04/27 03:26:25;;;;;;;6.30;2.80;;;;;;;8.83;100.00;101284.34;2080381;28;20576;-63
2023/04/27 03:27:25;;;;;;;6.20;2.60;;;;;;;8.76;100.00;101284.38;2080549;28;20196;-63
2023/04/27 03:28:26;;;;;;;4.47;2.50;;;;;;;8.16;100.00;101184.47;2078111;28;20220;-63
2023/04/27 03:29:26;;;;;;;4.90;2.37;;;;;;;8.75;100.00;101285.56;2081337;28;20267;-63
2023/04/27 03:30:27;;;;;;;7.43;2.70;;;;;;;8.80;100.00;101285.13;2081370;28;20236;-63
2023/04/27 03:31:27;;;;;;;4.73;2.37;;;;;;;8.83;100.00;101292.63;2080348;28;20234;-63
2023/04/27 03:32:28;;;;;;;6.97;2.70;;;;;;;8.79;100.00;101292.66;2080475;28;20628;-63
2023/04/27 03:33:28;;;;;;;6.43;2.50;;;;;;;8.82;100.00;101291.81;2077689;28;20189;-63
2023/04/27 03:34:29;;;;;;;5.87;2.77;;;;;;;8.81;100.00;101293.03;2076897;28;20192;-63
2023/04/27 03:35:30;;;;;;;7.95;2.85;;;;;;;8.80;100.00;101287.91;2080788;28;20181;-63
2023/04/27 03:36:31;;;;;;;7.23;2.47;;;;;;;8.92;100.00;101299.25;2079764;28;20304;-63
2023/04/27 03:37:31;;;;;;;9.10;2.55;;;;;;;8.13;100.00;101166.72;2080582;28;20188;-63
2023/04/27 03:38:32;;;;;;;6.40;2.77;;;;;;;8.76;100.00;101290.69;2078141;28;20648;-63
2023/04/27 03:39:33;;;;;;;6.53;2.90;;;;;;;8.90;100.00;101296.13;2072464;28;20220;-63
2023/04/27 03:40:33;;;;;;;4.97;2.60;;;;;;;8.94;100.00;101298.88;2079554;28;20205;-63
2023/04/27 03:41:34;;;;;;;6.33;3.00;;;;;;;8.82;100.00;101291.81;2080799;28;20195;-63
2023/04/27 03:42:34;;;;;;;5.40;2.60;;;;;;;8.88;100.00;101304.06;2080811;28;20185;-63
2023/04/27 03:43:35;;;;;;;8.30;2.97;;;;;;;8.66;100.00;101265.91;2077314;28;20277;-63
2023/04/27 03:44:35;;;;;;;4.77;2.53;;;;;;;8.89;100.00;101302.84;2075242;28;20230;-63
2023/04/27 03:45:35;;;;;;;5.93;3.13;;;;;;;8.88;100.00;101304.06;2080353;28;20573;-63
2023/04/27 03:46:36;;;;;;;6.93;3.30;;;;;;;8.79;100.00;101294.63;2080295;28;20203;-63
2023/04/27 03:47:36;;;;;;;9.07;2.87;;;;;;;8.87;100.00;101305.22;2080986;28;20186;-63
2023/04/27 03:48:37;;;;;;;7.53;3.17;;;;;;;8.82;100.00;101307.63;2077489;28;20274;-63
2023/04/27 03:49:37;;;;;;;6.97;2.57;;;;;;;8.75;100.00;101305.69;2077323;28;20210;-63
2023/04/27 03:50:38;;;;;;;7.03;2.80;;;;;;;8.78;100.00;101304.91;2080531;28;20214;-63
2023/04/27 03:51:41;;;;;;;9.63;3.00;;;;;;;8.87;100.00;101312.75;2080401;28;20278;-63
2023/04/27 03:52:41;;;;;;;6.50;3.07;;;;;;;8.90;100.00;101312.72;2080499;28;20190;-62
2023/04/27 03:53:41;;;;;;;4.57;2.43;;;;;;;8.89;100.00;101308.38;2078896;28;20429;-63
2023/04/27 03:54:42;;;;;;;6.20;2.73;;;;;;;8.85;100.00;101320.63;2080782;28;20184;-63
2023/04/27 03:55:43;;;;;;;8.53;2.70;;;;;;;8.67;100.00;101284.81;2080995;28;20186;-63
2023/04/27 03:56:44;;;;;;;6.82;2.80;;;;;;;8.85;100.00;101318.66;2079811;28;20198;-63
2023/04/27 03:57:44;;;;;;;6.67;2.87;;;;;;;8.69;100.00;101281.66;2080628;28;20210;-63
2023/04/27 03:58:45;;;;;;;9.50;2.63;;;;;;;8.93;100.00;101319.41;2076541;28;20254;-63
2023/04/27 03:59:46;;;;;;;8.13;2.80;;;;;;;8.69;100.00;101268.63;2075495;28;20205;-63
2023/04/27 04:00:46;;;;;;;7.20;2.67;;;;;;;8.99;100.00;101320.56;2080408;28;20196;-63
2023/04/27 04:01:46;;;;;;;5.93;2.87;;;;;;;9.04;100.00;101320.13;2079235;28;20187;-63
2023/04/27 04:02:47;;;;;;;5.70;2.40;;;;;;;9.07;100.00;101316.56;2073524;28;20181;-63
2023/04/27 04:03:47;;;;;;;6.27;2.77;;;;;;;9.03;100.00;101319.34;2080494;28;20179;-63
2023/04/27 04:04:48;;;;;;;6.90;3.00;;;;;;;8.96;100.00;101310.31;2080419;28;20600;-63
2023/04/27 04:05:48;;;;;;;6.07;3.00;;;;;;;8.47;100.00;101224.94;2079918;28;20327;-63
2023/04/27 04:06:49;;;;;;;6.77;2.80;;;;;;;9.18;100.00;101325.56;2079770;28;20227;-62
2023/04/27 04:07:49;;;;;;;6.27;2.90;;;;;;;9.24;100.00;101326.72;2080748;28;20188;-63
2023/04/27 04:08:49;;;;;;;5.93;2.60;;;;;;;9.12;100.00;101305.06;2076658;28;20207;-63
2023/04/27 04:09:50;;;;;;;6.00;2.90;;;;;;;9.31;100.00;101329.41;2073830;28;20248;-63
2023/04/27 04:10:50;;;;;;;11.13;4.73;;;;;;;9.30;100.00;101323.13;2079176;28;20232;-63
2023/04/27 04:11:51;;;;;;;6.53;3.07;;;;;;;9.41;100.00;101329.34;2072681;28;20233;-63
2023/04/27 04:12:52;;;;;;;6.50;2.73;;;;;;;9.45;100.00;101332.06;2080461;28;20195;-63
2023/04/27 04:13:52;;;;;;;8.57;3.00;;;;;;;9.45;100.00;101327.34;2076134;28;20246;-63
2023/04/27 04:14:52;;;;;;;5.33;2.73;;;;;;;9.46;100.00;101331.69;2078152;28;20545;-63
2023/04/27 04:16:04;;;;;;;5.00;2.80;;;;;;;9.41;100.00;101311.94;2080137;28;20192;-63
2023/04/27 04:17:04;;;;;;;3.83;2.40;;;;;;;9.47;100.00;101333.25;2080009;28;20188;-63
2023/04/27 04:18:04;;;;;;;7.77;2.40;;;;;;;9.39;100.00;101319.88;2076439;28;20590;-63
2023/04/27 04:19:05;;;;;;;5.80;2.80;;;;;;;9.53;100.00;101341.91;2074660;28;20204;-63
2023/04/27 04:20:07;;;;;;;7.20;2.77;;;;;;;9.54;100.00;101337.94;2079831;28;20211;-63
2023/04/27 04:21:10;;;;;;;7.43;3.45;;;;;;;9.58;100.00;101342.22;2080031;28;20181;-63
2023/04/27 04:22:10;;;;;;;9.37;4.10;;;;;;;9.60;100.00;101341.84;2080855;28;20602;-63
2023/04/27 04:23:11;;;;;;;6.57;3.30;;;;;;;9.61;100.00;101346.16;2080355;28;20445;-63
2023/04/27 04:24:11;;;;;;;6.67;2.70;;;;;;;9.60;100.00;101342.63;2078102;28;20718;-63
2023/04/27 04:25:11;;;;;;;4.77;2.53;;;;;;;9.61;100.00;101343.41;2080314;28;20760;-63
2023/04/27 04:26:12;;;;;;;7.03;3.03;;;;;;;9.61;100.00;101344.19;2079857;28;20210;-63
2023/04/27 04:27:12;;;;;;;6.00;2.77;;;;;;;9.70;100.00;101344.53;2080129;28;20190;-63
2023/04/27 04:28:13;;;;;;;6.30;2.90;;;;;;;9.71;100.00;101361.91;2078090;28;20175;-63
2023/04/27 04:29:14;;;;;;;5.30;2.90;;;;;;;9.57;100.00;101324.06;2073208;28;20260;-63
2023/04/27 04:30:15;;;;;;;5.90;2.93;;;;;;;9.81;100.00;101347.19;2079749;28;20181;-63
2023/04/27 04:31:17;;;;;;;4.50;2.50;;;;;;;9.86;100.00;101349.50;2080129;28;20196;-63
2023/04/27 04:32:18;;;;;;;5.57;2.90;;;;;;;9.81;100.00;101347.97;2080055;28;20476;-63
2023/04/27 04:33:19;;;;;;;7.30;2.87;;;;;;;9.84;100.00;101355.44;2073878;28;20466;-63
2023/04/27 04:34:19;;;;;;;7.63;3.33;;;;;;;9.88;100.00;101352.63;2073685;28;20457;-63
2023/04/27 04:35:20;;;;;;;10.10;3.07;;;;;;;9.93;100.00;101349.44;2076170;28;20570;-63
2023/04/27 04:36:21;;;;;;;6.80;3.27;;;;;;;9.92;100.00;101354.19;2079404;28;20586;-63
2023/04/27 04:37:22;;;;;;;7.27;2.77;;;;;;;9.42;100.00;101307.97;2079781;28;20935;-62
2023/04/27 04:38:22;;;;;;;5.63;3.00;;;;;;;9.90;100.00;101358.56;2079935;28;20206;-63
2023/04/27 04:39:23;;;;;;;6.40;2.90;;;;;;;9.88;100.00;101356.19;2073366;28;20180;-63
2023/04/27 04:40:23;;;;;;;6.50;3.10;;;;;;;9.43;100.00;101281.91;2079439;28;20196;-63
2023/04/27 04:41:24;;;;;;;8.40;3.67;;;;;;;9.85;100.00;101351.47;2079977;28;20189;-63
2023/04/27 04:42:25;;;;;;;6.43;3.20;;;;;;;9.92;100.00;101359.72;2074865;28;20189;-63